Time;durP1;ratioP1;P1;durP2;ratioP2;P2;SDS_P1;SDS_P2;PMS_P1;PMS_P2;Temp;Humidity;BMP_temperature;BMP_pressure;BME280_temperature;BME280_humidity;BME280_pressure;Samples;Min_cycle;Max_cycle;Signal;HPM_P1;HPM_P2
2021/12/02 00:00:46;;;;;;;0.77;0.50;;;;;;;;;;4941557;29;20103;-65
2021/12/02 00:03:12;;;;;;;1.30;0.77;;;;;;;;;;4951501;28;20031;-64
2021/12/02 00:05:38;;;;;;;0.65;0.50;;;;;;;;;;5010427;28;20029;-65
2021/12/02 00:08:04;;;;;;;1.33;0.60;;;;;;;;;;5006143;28;20396;-65
2021/12/02 00:10:31;;;;;;;0.60;0.57;;;;;;;;;;5006920;28;20034;-65
2021/12/02 00:12:58;;;;;;;0.88;0.60;;;;;;;;;;5004519;28;20493;-65
2021/12/02 00:15:29;;;;;;;0.68;0.50;;;;;;;;;;4995758;28;20068;-65
2021/12/02 00:18:08;;;;;;;1.23;0.57;;;;;;;;;;5012845;28;20041;-62
2021/12/02 00:23:54;;;;;;;1.08;0.70;;;;;;;;;;4996953;28;20033;-65
2021/12/02 00:26:21;;;;;;;2.60;0.90;;;;;;;;;;5014734;28;20021;-66
2021/12/02 00:28:52;;;;;;;4.10;1.38;;;;;;;;;;5008346;28;20029;-66
2021/12/02 00:31:20;;;;;;;5.40;2.42;;;;;;;;;;5001655;28;20069;-66
2021/12/02 00:33:50;;;;;;;6.20;1.30;;;;;;;;;;5004779;28;20424;-66
2021/12/02 00:36:17;;;;;;;1.80;0.68;;;;;;;;;;5002802;28;20028;-65
2021/12/02 00:38:46;;;;;;;3.13;1.02;;;;;;;;;;5009346;28;20083;-65
2021/12/02 00:41:13;;;;;;;2.03;0.80;;;;;;;;;;5012252;28;20022;-63
2021/12/02 00:43:40;;;;;;;2.15;0.88;;;;;;;;;;5008357;28;20018;-63
2021/12/02 00:46:13;;;;;;;2.55;1.10;;;;;;;;;;4990486;28;20017;-66
2021/12/02 00:48:40;;;;;;;1.90;1.13;;;;;;;;;;4996988;28;20569;-61
2021/12/02 00:51:06;;;;;;;1.55;0.93;;;;;;;;;;5005048;28;20118;-65
2021/12/02 00:53:34;;;;;;;1.65;1.02;;;;;;;;;;5003697;28;20366;-66
2021/12/02 00:56:06;;;;;;;2.17;1.23;;;;;;;;;;5013887;28;20460;-66
2021/12/02 00:58:33;;;;;;;1.40;0.93;;;;;;;;;;5007229;28;20446;-66
2021/12/02 01:01:00;;;;;;;1.13;0.70;;;;;;;;;;5003686;28;20021;-66
2021/12/02 01:03:31;;;;;;;1.13;0.95;;;;;;;;;;5004436;28;20453;-65
2021/12/02 01:05:57;;;;;;;3.22;0.90;;;;;;;;;;5006343;28;20038;-65
2021/12/02 01:08:25;;;;;;;0.55;0.55;;;;;;;;;;5001382;28;20029;-65
2021/12/02 01:10:50;;;;;;;0.60;0.60;;;;;;;;;;5007780;28;20382;-65
2021/12/02 01:13:16;;;;;;;1.10;0.80;;;;;;;;;;5014276;28;20029;-66
2021/12/02 01:15:42;;;;;;;1.88;1.00;;;;;;;;;;5009328;28;20466;-65
2021/12/02 01:18:08;;;;;;;0.88;0.70;;;;;;;;;;5006989;28;20036;-65
2021/12/02 01:20:33;;;;;;;1.23;0.90;;;;;;;;;;4996266;28;20046;-66
2021/12/02 01:23:00;;;;;;;2.72;1.30;;;;;;;;;;4994325;28;20023;-64
2021/12/02 01:25:27;;;;;;;4.03;1.42;;;;;;;;;;5012022;28;20084;-66
2021/12/02 01:27:55;;;;;;;2.38;1.00;;;;;;;;;;5002208;28;20023;-65
2021/12/02 01:30:20;;;;;;;0.50;0.50;;;;;;;;;;5011088;28;20053;-65
2021/12/02 01:32:48;;;;;;;0.60;0.60;;;;;;;;;;4995973;28;20358;-65
2021/12/02 01:35:16;;;;;;;0.60;0.60;;;;;;;;;;4990924;28;20030;-63
2021/12/02 01:37:45;;;;;;;0.60;0.60;;;;;;;;;;5005723;28;20029;-61
2021/12/02 01:40:10;;;;;;;0.60;0.60;;;;;;;;;;5009110;28;20026;-64
2021/12/02 01:42:39;;;;;;;1.58;0.65;;;;;;;;;;5008444;28;20034;-59
2021/12/02 01:45:05;;;;;;;0.85;0.60;;;;;;;;;;5006959;28;20128;-63
2021/12/02 01:47:32;;;;;;;1.48;0.70;;;;;;;;;;5011852;28;20029;-63
2021/12/02 01:50:03;;;;;;;0.80;0.70;;;;;;;;;;5010301;28;20091;-65
2021/12/02 01:52:31;;;;;;;0.50;0.50;;;;;;;;;;5010227;28;20538;-66
2021/12/02 01:55:05;;;;;;;0.50;0.50;;;;;;;;;;5009901;28;20489;-64
2021/12/02 01:57:34;;;;;;;0.55;0.55;;;;;;;;;;5011908;28;20408;-65
2021/12/02 02:00:10;;;;;;;1.27;0.70;;;;;;;;;;5007922;28;20461;-65
2021/12/02 02:02:37;;;;;;;1.65;0.60;;;;;;;;;;5010169;28;20496;-65
2021/12/02 02:05:07;;;;;;;0.70;0.70;;;;;;;;;;5010294;28;20025;-65
2021/12/02 02:07:36;;;;;;;1.23;0.60;;;;;;;;;;5008095;28;20045;-64
2021/12/02 02:10:03;;;;;;;1.40;0.68;;;;;;;;;;5010596;28;20400;-65
2021/12/02 02:12:29;;;;;;;0.60;0.57;;;;;;;;;;5009784;28;20044;-65
2021/12/02 02:14:55;;;;;;;0.55;0.55;;;;;;;;;;5008260;28;20023;-64
2021/12/02 02:17:30;;;;;;;1.15;0.60;;;;;;;;;;4999967;28;20030;-66
2021/12/02 02:19:56;;;;;;;0.75;0.63;;;;;;;;;;4993424;28;20068;-66
2021/12/02 02:22:23;;;;;;;0.57;0.57;;;;;;;;;;4992520;28;20026;-66
2021/12/02 02:24:50;;;;;;;0.93;0.50;;;;;;;;;;4992835;28;20026;-65
2021/12/02 02:27:16;;;;;;;0.52;0.52;;;;;;;;;;4999479;28;20021;-66
2021/12/02 02:29:42;;;;;;;1.20;0.60;;;;;;;;;;5002857;28;20031;-65
2021/12/02 02:32:08;;;;;;;0.60;0.60;;;;;;;;;;4992464;28;20034;-65
2021/12/02 02:34:33;;;;;;;0.52;0.52;;;;;;;;;;4992338;28;20050;-65
2021/12/02 02:37:03;;;;;;;0.60;0.60;;;;;;;;;;4992246;28;20429;-63
2021/12/02 02:39:30;;;;;;;3.08;0.90;;;;;;;;;;4992741;28;20027;-63
2021/12/02 02:41:57;;;;;;;0.65;0.65;;;;;;;;;;5005506;28;20384;-64
2021/12/02 02:44:24;;;;;;;0.70;0.60;;;;;;;;;;5017711;28;20424;-66
2021/12/02 02:46:50;;;;;;;2.05;0.70;;;;;;;;;;5003517;28;20050;-66
2021/12/02 02:49:15;;;;;;;1.63;0.70;;;;;;;;;;5000380;28;20497;-66
2021/12/02 02:51:42;;;;;;;0.70;0.70;;;;;;;;;;5012349;28;20041;-67
2021/12/02 02:54:10;;;;;;;1.70;0.95;;;;;;;;;;5012409;28;20022;-66
2021/12/02 02:56:44;;;;;;;1.58;0.80;;;;;;;;;;5002722;28;20089;-66
2021/12/02 02:59:35;;;;;;;1.83;0.80;;;;;;;;;;4999449;28;20049;-68
2021/12/02 03:07:35;;;;;;;3.35;0.90;;;;;;;;;;4951549;28;20048;-65
2021/12/02 03:13:10;;;;;;;1.50;0.85;;;;;;;;;;4951089;28;20063;-67
2021/12/02 03:18:09;;;;;;;1.85;0.80;;;;;;;;;;4839135;29;20042;-66
2021/12/02 03:20:35;;;;;;;1.00;0.80;;;;;;;;;;4850928;29;20045;-64
2021/12/02 03:23:01;;;;;;;1.17;0.75;;;;;;;;;;4846226;29;20038;-65
2021/12/02 03:25:26;;;;;;;0.80;0.77;;;;;;;;;;4838290;29;20034;-67
2021/12/02 03:27:52;;;;;;;1.00;0.80;;;;;;;;;;4838903;29;20113;-61
2021/12/02 03:30:18;;;;;;;1.75;0.90;;;;;;;;;;4838568;29;20080;-62
2021/12/02 03:32:43;;;;;;;0.80;0.75;;;;;;;;;;4838335;29;20413;-64
2021/12/02 03:35:09;;;;;;;1.42;0.80;;;;;;;;;;4838786;29;20126;-65
2021/12/02 03:37:34;;;;;;;0.77;0.70;;;;;;;;;;4838707;29;20034;-61
2021/12/02 03:40:00;;;;;;;2.03;0.88;;;;;;;;;;4842679;29;20030;-65
2021/12/02 03:42:26;;;;;;;1.40;1.15;;;;;;;;;;4880865;29;20048;-61
2021/12/02 03:44:51;;;;;;;1.02;0.80;;;;;;;;;;4894622;29;20025;-59
2021/12/02 03:47:17;;;;;;;1.35;0.80;;;;;;;;;;4894146;29;20497;-64
2021/12/02 03:49:42;;;;;;;0.60;0.60;;;;;;;;;;4894291;29;20072;-60
2021/12/02 03:52:08;;;;;;;1.90;0.70;;;;;;;;;;4894771;29;20107;-64
2021/12/02 03:54:34;;;;;;;2.35;1.05;;;;;;;;;;4915990;28;20505;-64
2021/12/02 03:56:59;;;;;;;1.08;0.75;;;;;;;;;;5004770;28;20030;-64
2021/12/02 03:59:25;;;;;;;0.88;0.68;;;;;;;;;;5008873;28;20029;-64
2021/12/02 04:01:50;;;;;;;1.15;1.05;;;;;;;;;;4999965;28;20164;-65
2021/12/02 04:04:16;;;;;;;1.95;0.90;;;;;;;;;;5013374;28;20112;-64
2021/12/02 04:06:41;;;;;;;1.38;0.90;;;;;;;;;;5007156;28;20497;-66
2021/12/02 04:09:19;;;;;;;2.25;0.77;;;;;;;;;;5005416;28;20037;-65
2021/12/02 04:17:03;;;;;;;0.90;0.77;;;;;;;;;;4995292;28;20026;-66
2021/12/02 04:19:29;;;;;;;2.80;1.00;;;;;;;;;;4995767;28;20547;-65
2021/12/02 04:21:57;;;;;;;5.82;4.07;;;;;;;;;;5006304;28;20026;-65
2021/12/02 04:24:22;;;;;;;1.48;1.00;;;;;;;;;;4995030;28;20030;-61
2021/12/02 04:26:48;;;;;;;1.02;0.82;;;;;;;;;;5001407;28;20029;-65
2021/12/02 04:29:14;;;;;;;1.05;0.60;;;;;;;;;;4999980;28;20138;-62
2021/12/02 04:31:44;;;;;;;1.98;0.95;;;;;;;;;;4995018;28;20469;-65
2021/12/02 04:34:10;;;;;;;0.70;0.70;;;;;;;;;;5012190;28;20022;-65
2021/12/02 04:36:36;;;;;;;1.10;0.70;;;;;;;;;;4995402;28;20429;-65
2021/12/02 04:39:02;;;;;;;1.15;0.88;;;;;;;;;;5016789;28;20018;-66
2021/12/02 04:41:27;;;;;;;1.55;0.90;;;;;;;;;;5006719;28;20034;-64
2021/12/02 04:43:53;;;;;;;1.35;0.90;;;;;;;;;;4994906;28;20065;-66
2021/12/02 04:46:18;;;;;;;1.00;0.90;;;;;;;;;;4994878;28;20030;-66
2021/12/02 04:48:44;;;;;;;1.63;0.90;;;;;;;;;;5005146;28;20386;-66
2021/12/02 04:51:09;;;;;;;2.33;0.90;;;;;;;;;;5014258;28;20025;-66
2021/12/02 04:53:35;;;;;;;1.48;0.70;;;;;;;;;;5007197;28;20513;-63
2021/12/02 04:56:00;;;;;;;2.80;0.93;;;;;;;;;;4994599;28;20030;-67
2021/12/02 04:58:26;;;;;;;1.42;0.90;;;;;;;;;;4994612;28;20121;-66
2021/12/02 05:00:51;;;;;;;3.97;1.10;;;;;;;;;;4996486;28;20031;-66
2021/12/02 05:03:17;;;;;;;1.70;0.93;;;;;;;;;;5013988;28;20033;-66
2021/12/02 05:05:42;;;;;;;3.05;1.40;;;;;;;;;;5009183;28;20041;-58
2021/12/02 05:08:08;;;;;;;1.92;1.08;;;;;;;;;;5013958;28;20128;-59
2021/12/02 05:10:33;;;;;;;0.90;0.70;;;;;;;;;;5013379;28;20087;-59
2021/12/02 05:12:59;;;;;;;0.68;0.60;;;;;;;;;;5012468;28;20029;-59
2021/12/02 05:15:25;;;;;;;1.55;0.80;;;;;;;;;;4994974;28;20025;-57
2021/12/02 05:17:51;;;;;;;2.15;0.90;;;;;;;;;;5013215;28;20037;-62
2021/12/02 05:20:16;;;;;;;7.78;1.08;;;;;;;;;;5009472;28;20026;-66
2021/12/02 05:22:43;;;;;;;2.08;0.90;;;;;;;;;;4996570;28;20113;-67
2021/12/02 05:25:08;;;;;;;4.50;0.68;;;;;;;;;;4995198;28;20037;-66
2021/12/02 05:27:34;;;;;;;2.17;1.08;;;;;;;;;;5007358;28;20474;-65
2021/12/02 05:30:00;;;;;;;2.45;0.60;;;;;;;;;;5001547;28;20362;-65
2021/12/02 05:32:30;;;;;;;0.60;0.60;;;;;;;;;;4995252;28;20022;-64
2021/12/02 05:34:55;;;;;;;1.13;0.80;;;;;;;;;;5013808;28;20126;-62
2021/12/02 05:37:21;;;;;;;0.65;0.65;;;;;;;;;;5002647;28;20105;-65
2021/12/02 05:39:46;;;;;;;0.70;0.65;;;;;;;;;;5003737;28;20404;-61
2021/12/02 05:42:12;;;;;;;1.38;0.80;;;;;;;;;;5002855;28;20021;-66
2021/12/02 05:44:37;;;;;;;1.35;0.88;;;;;;;;;;5004678;28;20373;-64
2021/12/02 05:47:03;;;;;;;2.65;0.90;;;;;;;;;;4993769;28;20466;-65
2021/12/02 05:49:29;;;;;;;5.15;1.92;;;;;;;;;;5001936;28;20085;-66
2021/12/02 05:51:54;;;;;;;2.13;1.17;;;;;;;;;;5008307;28;20057;-61
2021/12/02 05:54:20;;;;;;;3.08;1.10;;;;;;;;;;5013230;28;20053;-66
2021/12/02 05:56:45;;;;;;;1.63;0.82;;;;;;;;;;5011325;28;20052;-64
2021/12/02 05:59:11;;;;;;;1.50;0.80;;;;;;;;;;5011725;28;20030;-65
2021/12/02 06:01:41;;;;;;;2.30;1.00;;;;;;;;;;5012939;28;20030;-66
2021/12/02 06:04:06;;;;;;;0.88;0.88;;;;;;;;;;5004662;28;20065;-66
2021/12/02 06:06:32;;;;;;;0.70;0.70;;;;;;;;;;5006662;28;20049;-65
2021/12/02 06:08:58;;;;;;;1.90;1.10;;;;;;;;;;5012053;28;20032;-65
2021/12/02 06:11:23;;;;;;;1.92;0.80;;;;;;;;;;5003733;28;21237;-64
2021/12/02 06:13:49;;;;;;;2.17;1.02;;;;;;;;;;5012631;28;20034;-66
2021/12/02 06:16:15;;;;;;;2.45;1.20;;;;;;;;;;5013048;28;20025;-66
2021/12/02 06:18:40;;;;;;;0.95;0.80;;;;;;;;;;5013190;28;20022;-64
2021/12/02 06:21:06;;;;;;;2.33;0.82;;;;;;;;;;4999207;28;20444;-62
2021/12/02 06:23:32;;;;;;;1.10;0.77;;;;;;;;;;4993405;28;20446;-65
2021/12/02 06:25:57;;;;;;;0.57;0.57;;;;;;;;;;4992741;28;20043;-66
2021/12/02 06:28:23;;;;;;;2.70;0.80;;;;;;;;;;4994941;28;20034;-65
2021/12/02 06:30:48;;;;;;;1.63;0.70;;;;;;;;;;4996419;28;20038;-65
2021/12/02 06:33:15;;;;;;;2.03;1.25;;;;;;;;;;5012754;28;20044;-66
2021/12/02 06:35:41;;;;;;;1.05;0.90;;;;;;;;;;5011153;28;20026;-65
2021/12/02 06:38:07;;;;;;;1.50;0.93;;;;;;;;;;4993226;28;20492;-64
2021/12/02 06:40:34;;;;;;;2.33;0.80;;;;;;;;;;4988764;28;20121;-66
2021/12/02 06:43:01;;;;;;;1.60;0.70;;;;;;;;;;4993620;28;20038;-66
2021/12/02 06:45:27;;;;;;;0.50;0.50;;;;;;;;;;5001675;28;20025;-66
2021/12/02 06:47:57;;;;;;;1.50;0.93;;;;;;;;;;5001381;28;20567;-66
2021/12/02 06:50:23;;;;;;;2.25;0.80;;;;;;;;;;5009083;28;20053;-65
2021/12/02 06:52:50;;;;;;;3.08;1.00;;;;;;;;;;5012554;28;20453;-65
2021/12/02 06:55:17;;;;;;;1.67;1.08;;;;;;;;;;5011621;28;20447;-66
2021/12/02 06:57:43;;;;;;;0.85;0.70;;;;;;;;;;5002804;28;20478;-65
2021/12/02 07:00:11;;;;;;;0.98;0.80;;;;;;;;;;5003045;28;20033;-61
2021/12/02 07:02:38;;;;;;;0.85;0.75;;;;;;;;;;4982334;28;20124;-66
2021/12/02 07:05:04;;;;;;;0.75;0.70;;;;;;;;;;5009257;28;20022;-59
2021/12/02 07:07:34;;;;;;;0.93;0.75;;;;;;;;;;4993051;28;20041;-59
2021/12/02 07:09:59;;;;;;;1.63;1.10;;;;;;;;;;4992453;28;20037;-59
2021/12/02 07:12:33;;;;;;;1.30;1.00;;;;;;;;;;5008572;28;20018;-64
2021/12/02 07:15:04;;;;;;;3.95;1.88;;;;;;;;;;4996842;28;20033;-59
2021/12/02 07:17:30;;;;;;;2.03;1.05;;;;;;;;;;5012198;28;20030;-65
2021/12/02 07:19:55;;;;;;;2.83;2.00;;;;;;;;;;5012463;28;20017;-65
2021/12/02 07:22:21;;;;;;;2.00;1.08;;;;;;;;;;4994841;28;20026;-61
2021/12/02 07:24:46;;;;;;;3.33;1.40;;;;;;;;;;5009145;28;20105;-60
2021/12/02 07:27:12;;;;;;;1.63;1.10;;;;;;;;;;4992718;28;20077;-64
2021/12/02 07:29:39;;;;;;;1.77;0.80;;;;;;;;;;5002433;28;20027;-63
2021/12/02 07:32:05;;;;;;;1.40;0.80;;;;;;;;;;4993073;28;20377;-59
2021/12/02 07:34:34;;;;;;;1.40;1.00;;;;;;;;;;5006777;28;20045;-66
2021/12/02 07:37:01;;;;;;;1.45;1.00;;;;;;;;;;5012163;28;20026;-66
2021/12/02 07:39:27;;;;;;;1.15;0.77;;;;;;;;;;5015695;28;20058;-65
2021/12/02 07:41:52;;;;;;;2.80;0.85;;;;;;;;;;5013658;28;20119;-65
2021/12/02 07:44:18;;;;;;;2.45;1.27;;;;;;;;;;5010710;28;20029;-65
2021/12/02 07:46:44;;;;;;;1.35;0.90;;;;;;;;;;5005494;28;20018;-65
2021/12/02 07:49:14;;;;;;;3.75;1.55;;;;;;;;;;5005505;28;20616;-65
2021/12/02 07:51:43;;;;;;;1.17;0.70;;;;;;;;;;5014305;28;20025;-64
2021/12/02 07:54:10;;;;;;;4.00;1.27;;;;;;;;;;5003418;28;20548;-63
2021/12/02 07:56:36;;;;;;;0.93;0.80;;;;;;;;;;5003671;28;20022;-64
2021/12/02 07:59:02;;;;;;;0.85;0.80;;;;;;;;;;5008662;28;20029;-66
2021/12/02 08:01:28;;;;;;;1.77;0.90;;;;;;;;;;5013423;28;20037;-64
2021/12/02 08:03:53;;;;;;;1.85;1.05;;;;;;;;;;4996898;28;20014;-65
2021/12/02 08:06:19;;;;;;;1.48;0.95;;;;;;;;;;5001459;28;20485;-66
2021/12/02 08:08:46;;;;;;;0.80;0.73;;;;;;;;;;4995507;28;20041;-66
2021/12/02 08:11:12;;;;;;;5.22;1.38;;;;;;;;;;5001187;28;20028;-66
2021/12/02 08:13:38;;;;;;;0.63;0.63;;;;;;;;;;4998340;28;20053;-64
2021/12/02 08:16:05;;;;;;;0.82;0.80;;;;;;;;;;4995605;28;20022;-65
2021/12/02 08:18:32;;;;;;;1.48;0.82;;;;;;;;;;5013020;28;20030;-65
2021/12/02 08:20:59;;;;;;;2.80;1.25;;;;;;;;;;5010059;28;20029;-64
2021/12/02 08:23:25;;;;;;;14.20;1.25;;;;;;;;;;4995279;28;20026;-64
2021/12/02 08:25:51;;;;;;;3.13;0.80;;;;;;;;;;4977855;28;20030;-63
2021/12/02 08:28:16;;;;;;;1.55;1.00;;;;;;;;;;5002282;28;20028;-66
2021/12/02 08:30:42;;;;;;;5.55;1.60;;;;;;;;;;5001440;28;20038;-64
2021/12/02 08:33:09;;;;;;;0.75;0.70;;;;;;;;;;5001213;28;20029;-65
2021/12/02 08:35:35;;;;;;;2.42;1.08;;;;;;;;;;5014682;28;20037;-64
2021/12/02 08:38:06;;;;;;;1.15;0.88;;;;;;;;;;5014560;28;20432;-64
2021/12/02 08:40:34;;;;;;;0.95;0.80;;;;;;;;;;5012990;28;20030;-66
2021/12/02 08:43:01;;;;;;;2.75;1.25;;;;;;;;;;5009742;28;20025;-65
2021/12/02 08:45:27;;;;;;;2.17;1.05;;;;;;;;;;5000308;28;20026;-64
2021/12/02 08:47:57;;;;;;;1.23;0.80;;;;;;;;;;5010632;28;20172;-65
2021/12/02 08:50:23;;;;;;;2.65;1.20;;;;;;;;;;5000915;28;20465;-66
2021/12/02 08:52:51;;;;;;;2.47;1.08;;;;;;;;;;5004618;28;20033;-61
2021/12/02 08:55:18;;;;;;;2.05;1.40;;;;;;;;;;4994698;28;20019;-65
2021/12/02 08:57:44;;;;;;;2.58;0.90;;;;;;;;;;4994915;28;20027;-64
2021/12/02 09:00:12;;;;;;;2.30;0.80;;;;;;;;;;4994957;28;20030;-63
2021/12/02 09:02:38;;;;;;;0.93;0.80;;;;;;;;;;5010638;28;20061;-64
2021/12/02 09:05:05;;;;;;;2.55;0.90;;;;;;;;;;4996358;28;20061;-65
2021/12/02 09:07:31;;;;;;;1.67;0.90;;;;;;;;;;5014071;28;20034;-66
2021/12/02 09:09:57;;;;;;;1.67;1.00;;;;;;;;;;5013782;28;20133;-65
2021/12/02 09:12:23;;;;;;;2.42;1.13;;;;;;;;;;5010486;28;20038;-65
2021/12/02 09:14:49;;;;;;;1.90;1.23;;;;;;;;;;4997431;28;20101;-64
2021/12/02 09:17:15;;;;;;;2.05;1.33;;;;;;;;;;5001648;28;20584;-65
2021/12/02 09:19:40;;;;;;;2.58;1.02;;;;;;;;;;4998102;28;20046;-66
2021/12/02 09:22:06;;;;;;;1.40;0.98;;;;;;;;;;4999149;28;20022;-65
2021/12/02 09:24:31;;;;;;;1.52;1.10;;;;;;;;;;5007847;28;20055;-64
2021/12/02 09:26:57;;;;;;;2.20;1.15;;;;;;;;;;5004811;28;20054;-64
2021/12/02 09:29:23;;;;;;;1.73;1.10;;;;;;;;;;4999736;28;20030;-65
2021/12/02 09:31:50;;;;;;;1.77;0.95;;;;;;;;;;5001093;28;20035;-64
2021/12/02 09:34:16;;;;;;;2.72;1.20;;;;;;;;;;5005053;28;20566;-63
2021/12/02 09:36:43;;;;;;;1.30;0.90;;;;;;;;;;5004656;28;20025;-66
2021/12/02 09:39:11;;;;;;;6.13;1.00;;;;;;;;;;5008990;28;20014;-65
2021/12/02 09:41:37;;;;;;;0.98;0.80;;;;;;;;;;5001809;28;20025;-65
2021/12/02 09:44:04;;;;;;;2.55;1.00;;;;;;;;;;4993756;28;20026;-65
2021/12/02 09:46:30;;;;;;;2.33;1.20;;;;;;;;;;4985226;28;20061;-66
2021/12/02 09:49:00;;;;;;;1.52;0.80;;;;;;;;;;5004849;28;20093;-65
2021/12/02 09:51:29;;;;;;;1.35;1.10;;;;;;;;;;4996935;28;20062;-65
2021/12/02 09:53:58;;;;;;;1.10;0.70;;;;;;;;;;5022403;28;20049;-66
2021/12/02 09:56:32;;;;;;;4.40;0.98;;;;;;;;;;5021050;28;20018;-66
2021/12/02 09:59:06;;;;;;;1.38;0.80;;;;;;;;;;5007484;28;20030;-65
2021/12/02 10:01:52;;;;;;;2.05;0.90;;;;;;;;;;4996012;28;20030;-65
2021/12/02 10:04:21;;;;;;;1.63;0.98;;;;;;;;;;5002778;28;20017;-65
2021/12/02 10:06:47;;;;;;;1.58;1.08;;;;;;;;;;5014201;28;20025;-65
2021/12/02 10:09:36;;;;;;;2.60;1.40;;;;;;;;;;4999619;28;20526;-65
2021/12/02 10:12:11;;;;;;;2.45;1.10;;;;;;;;;;5006085;28;20062;-66
2021/12/02 10:14:38;;;;;;;3.28;1.27;;;;;;;;;;5020489;28;20416;-66
2021/12/02 10:17:19;;;;;;;2.35;1.40;;;;;;;;;;5006796;28;20034;-66
2021/12/02 10:22:45;;;;;;;2.15;1.23;;;;;;;;;;5000937;28;20026;-64
2021/12/02 10:25:11;;;;;;;2.35;1.30;;;;;;;;;;5009257;28;20076;-66
2021/12/02 10:28:07;;;;;;;2.38;1.40;;;;;;;;;;5010394;28;20054;-66
2021/12/02 10:30:34;;;;;;;1.80;1.27;;;;;;;;;;5005675;28;20065;-65
2021/12/02 10:32:59;;;;;;;1.65;1.20;;;;;;;;;;4991333;28;20030;-66
2021/12/02 10:35:40;;;;;;;3.03;1.70;;;;;;;;;;4999027;28;20030;-66
2021/12/02 10:38:06;;;;;;;4.18;1.38;;;;;;;;;;4996733;28;20022;-64
2021/12/02 10:40:34;;;;;;;3.20;1.88;;;;;;;;;;4993251;28;20037;-66
2021/12/02 10:43:07;;;;;;;3.63;1.77;;;;;;;;;;4993181;28;20048;-65
2021/12/02 10:45:33;;;;;;;2.47;1.45;;;;;;;;;;4993196;28;20035;-66
2021/12/02 10:47:59;;;;;;;2.63;1.55;;;;;;;;;;5007748;28;20038;-65
2021/12/02 10:50:26;;;;;;;3.50;2.20;;;;;;;;;;4992942;28;20052;-65
2021/12/02 10:52:52;;;;;;;2.42;1.33;;;;;;;;;;4993063;28;20053;-65
2021/12/02 10:55:23;;;;;;;1.80;1.17;;;;;;;;;;4975496;28;20030;-65
2021/12/02 10:57:54;;;;;;;3.72;1.45;;;;;;;;;;4993023;28;20026;-66
2021/12/02 11:00:25;;;;;;;3.45;2.08;;;;;;;;;;4993105;28;20038;-64
2021/12/02 11:02:53;;;;;;;;;;;;;;;;;;5006506;28;20042;-66
2021/12/02 11:05:29;;;;;;;2.05;1.25;;;;;;;;;;4992915;28;19917;-65
2021/12/02 11:08:06;;;;;;;1.90;1.10;;;;;;;;;;4999966;28;20377;-66
2021/12/02 11:10:44;;;;;;;2.38;1.20;;;;;;;;;;5012375;28;20029;-66
2021/12/02 11:13:16;;;;;;;4.43;1.38;;;;;;;;;;5015989;28;20385;-66
2021/12/02 11:15:42;;;;;;;3.00;1.45;;;;;;;;;;4998787;28;20435;-66
2021/12/02 11:18:12;;;;;;;1.30;0.90;;;;;;;;;;5011268;28;20062;-64
2021/12/02 11:20:40;;;;;;;2.60;1.10;;;;;;;;;;5016471;28;20096;-66
2021/12/02 11:23:13;;;;;;;1.83;1.25;;;;;;;;;;5016397;28;20026;-65
2021/12/02 11:25:53;;;;;;;2.00;1.20;;;;;;;;;;5016075;28;20061;-60
2021/12/02 11:28:22;;;;;;;2.60;1.45;;;;;;;;;;5016256;28;20072;-60
2021/12/02 11:30:48;;;;;;;1.58;0.98;;;;;;;;;;5015814;28;20041;-62
2021/12/02 11:33:18;;;;;;;3.45;1.80;;;;;;;;;;5015646;28;20033;-66
2021/12/02 11:35:46;;;;;;;2.65;1.70;;;;;;;;;;5016007;28;20022;-64
2021/12/02 11:38:15;;;;;;;5.57;1.55;;;;;;;;;;5016041;28;20481;-64
2021/12/02 11:40:44;;;;;;;1.85;1.30;;;;;;;;;;5016089;28;20496;-66
2021/12/02 11:43:13;;;;;;;2.80;1.23;;;;;;;;;;4999536;28;20030;-66
2021/12/02 11:45:46;;;;;;;3.78;1.90;;;;;;;;;;4996215;28;20027;-66
2021/12/02 11:48:14;;;;;;;1.88;1.27;;;;;;;;;;4996038;28;20481;-64
2021/12/02 11:50:41;;;;;;;1.90;1.08;;;;;;;;;;4996277;28;20073;-66
2021/12/02 11:53:06;;;;;;;1.00;0.75;;;;;;;;;;4996232;28;20080;-66
2021/12/02 11:55:38;;;;;;;2.20;1.20;;;;;;;;;;4996741;28;20026;-64
2021/12/02 11:58:04;;;;;;;3.40;1.35;;;;;;;;;;4996058;28;20397;-62
2021/12/02 12:00:31;;;;;;;1.55;1.10;;;;;;;;;;4996506;28;20034;-65
2021/12/02 12:03:29;;;;;;;2.78;1.17;;;;;;;;;;5015679;28;20025;-66
2021/12/02 12:06:00;;;;;;;1.58;0.95;;;;;;;;;;5015047;28;20057;-66
2021/12/02 12:08:35;;;;;;;1.90;1.13;;;;;;;;;;5015597;28;20022;-66
2021/12/02 12:11:23;;;;;;;2.28;1.13;;;;;;;;;;5015390;28;20068;-65
2021/12/02 12:13:50;;;;;;;2.78;1.88;;;;;;;;;;5015439;28;20029;-66
2021/12/02 12:16:29;;;;;;;2.03;1.30;;;;;;;;;;5015409;28;20018;-66
2021/12/02 12:19:12;;;;;;;1.00;0.90;;;;;;;;;;5015316;28;20112;-66
2021/12/02 12:21:40;;;;;;;2.08;1.23;;;;;;;;;;5015276;28;20129;-64
2021/12/02 12:24:07;;;;;;;3.22;1.20;;;;;;;;;;5014342;28;20105;-66
2021/12/02 12:26:35;;;;;;;4.70;2.45;;;;;;;;;;5015249;28;20022;-66
2021/12/02 12:29:07;;;;;;;5.43;2.60;;;;;;;;;;5014808;28;20037;-66
2021/12/02 12:31:51;;;;;;;2.45;1.55;;;;;;;;;;5015454;28;20057;-66
2021/12/02 12:37:25;;;;;;;2.08;1.23;;;;;;;;;;5006268;28;20117;-66
2021/12/02 12:40:18;;;;;;;5.45;1.15;;;;;;;;;;5001134;28;20105;-66
2021/12/02 12:43:07;;;;;;;3.22;1.40;;;;;;;;;;5003264;28;20030;-66
2021/12/02 12:45:36;;;;;;;2.25;1.10;;;;;;;;;;4989014;28;20063;-65
2021/12/02 12:48:05;;;;;;;3.33;1.80;;;;;;;;;;5014611;28;20464;-66
2021/12/02 12:50:38;;;;;;;2.42;1.40;;;;;;;;;;5013756;28;20504;-66
2021/12/02 12:53:13;;;;;;;4.75;2.72;;;;;;;;;;5014309;28;20501;-66
2021/12/02 12:55:41;;;;;;;5.55;1.95;;;;;;;;;;5004821;28;20076;-66
2021/12/02 12:58:16;;;;;;;3.42;1.48;;;;;;;;;;5007721;28;20095;-66
2021/12/02 13:00:46;;;;;;;4.43;2.03;;;;;;;;;;5008487;28;20497;-65
2021/12/02 13:03:28;;;;;;;4.27;3.10;;;;;;;;;;5013499;28;20034;-64
2021/12/02 13:06:01;;;;;;;4.05;2.10;;;;;;;;;;5008667;28;20401;-64
2021/12/02 13:08:36;;;;;;;3.65;2.22;;;;;;;;;;5009005;28;20034;-63
2021/12/02 13:11:11;;;;;;;2.35;1.63;;;;;;;;;;5011091;28;20109;-64
2021/12/02 13:13:37;;;;;;;6.40;3.42;;;;;;;;;;5014284;28;20034;-60
2021/12/02 13:16:21;;;;;;;2.00;1.15;;;;;;;;;;5008402;28;20025;-59
2021/12/02 13:18:53;;;;;;;2.17;1.40;;;;;;;;;;5009876;28;20026;-59
2021/12/02 13:21:33;;;;;;;3.05;1.60;;;;;;;;;;5012781;28;20033;-64
2021/12/02 13:24:15;;;;;;;4.00;1.50;;;;;;;;;;5011921;28;20046;-66
2021/12/02 13:26:47;;;;;;;2.53;1.35;;;;;;;;;;5012617;28;20036;-65
2021/12/02 13:29:21;;;;;;;2.50;1.13;;;;;;;;;;5013130;28;20022;-65
2021/12/02 13:31:49;;;;;;;4.57;1.40;;;;;;;;;;5010724;28;20018;-65
2021/12/02 13:34:16;;;;;;;2.05;1.40;;;;;;;;;;5012265;28;20061;-64
2021/12/02 13:36:44;;;;;;;3.88;1.70;;;;;;;;;;5012741;28;20044;-63
2021/12/02 13:39:12;;;;;;;1.70;1.40;;;;;;;;;;5010871;28;20029;-65
2021/12/02 13:41:42;;;;;;;2.72;1.30;;;;;;;;;;5012538;28;20407;-66
2021/12/02 13:44:14;;;;;;;2.50;1.58;;;;;;;;;;5008640;28;20034;-65
2021/12/02 13:46:48;;;;;;;3.35;1.65;;;;;;;;;;5006636;28;20057;-65
2021/12/02 13:49:23;;;;;;;7.30;2.50;;;;;;;;;;5007741;28;20057;-66
2021/12/02 13:54:40;;;;;;;9.95;4.30;;;;;;;;;;5011553;28;20119;-66
2021/12/02 13:57:44;;;;;;;12.77;4.63;;;;;;;;;;5010236;28;20030;-66
2021/12/02 14:00:31;;;;;;;1.85;1.35;;;;;;;;;;5012029;28;20025;-65
2021/12/02 14:03:07;;;;;;;9.38;3.40;;;;;;;;;;5007678;28;20109;-64
2021/12/02 14:05:38;;;;;;;9.13;3.85;;;;;;;;;;5007337;28;20034;-65
2021/12/02 14:08:07;;;;;;;4.50;2.95;;;;;;;;;;5010589;28;20489;-66
2021/12/02 14:10:35;;;;;;;4.03;1.90;;;;;;;;;;5008559;28;20091;-66
2021/12/02 14:13:04;;;;;;;6.43;2.63;;;;;;;;;;5005764;28;20437;-66
2021/12/02 14:15:37;;;;;;;2.30;1.75;;;;;;;;;;5009294;28;20496;-65
2021/12/02 14:18:14;;;;;;;3.05;1.38;;;;;;;;;;4991576;28;20025;-65
2021/12/02 14:20:47;;;;;;;5.10;2.28;;;;;;;;;;5009423;28;20487;-65
2021/12/02 14:23:22;;;;;;;5.20;2.35;;;;;;;;;;5008809;28;20109;-66
2021/12/02 14:25:51;;;;;;;8.35;3.45;;;;;;;;;;5011930;28;20076;-66
2021/12/02 14:28:22;;;;;;;5.55;1.70;;;;;;;;;;5000796;28;20092;-66
2021/12/02 14:30:54;;;;;;;5.45;1.73;;;;;;;;;;5001870;28;20529;-66
2021/12/02 14:33:28;;;;;;;3.13;1.90;;;;;;;;;;5011859;28;20396;-66
2021/12/02 14:36:15;;;;;;;2.67;1.55;;;;;;;;;;5003255;28;20064;-66
2021/12/02 14:38:50;;;;;;;17.17;2.60;;;;;;;;;;5011721;28;20382;-65
2021/12/02 14:41:16;;;;;;;4.35;2.40;;;;;;;;;;5008759;28;20553;-66
2021/12/02 14:44:05;;;;;;;7.95;2.35;;;;;;;;;;4999444;28;20052;-66
2021/12/02 14:46:37;;;;;;;8.15;5.50;;;;;;;;;;4992384;28;20026;-65
2021/12/02 14:49:03;;;;;;;5.38;3.63;;;;;;;;;;4998739;28;20034;-66
2021/12/02 14:51:29;;;;;;;8.38;3.33;;;;;;;;;;4992818;28;20605;-66
2021/12/02 14:53:57;;;;;;;2.08;1.63;;;;;;;;;;4992594;28;20031;-66
2021/12/02 14:56:24;;;;;;;3.53;1.83;;;;;;;;;;4992490;28;20080;-64
2021/12/02 14:59:07;;;;;;;2.95;2.38;;;;;;;;;;5009886;28;20038;-66
2021/12/02 15:01:34;;;;;;;4.10;2.72;;;;;;;;;;5003758;28;20484;-65
2021/12/02 15:04:14;;;;;;;2.53;1.70;;;;;;;;;;5007359;28;20019;-66
2021/12/02 15:06:40;;;;;;;2.92;2.10;;;;;;;;;;4992542;28;20489;-64
2021/12/02 15:09:25;;;;;;;3.00;1.73;;;;;;;;;;5005244;28;20030;-64
2021/12/02 15:11:51;;;;;;;26.02;9.65;;;;;;;;;;4992609;28;20030;-67
2021/12/02 15:14:37;;;;;;;14.60;4.88;;;;;;;;;;5001222;28;20022;-66
2021/12/02 15:17:05;;;;;;;8.02;3.35;;;;;;;;;;5012278;28;20018;-66
2021/12/02 15:19:46;;;;;;;18.80;6.57;;;;;;;;;;5010906;28;20021;-64
2021/12/02 15:22:24;;;;;;;3.90;2.33;;;;;;;;;;5005866;28;20491;-64